South Fort Myers, Florida
Current Conditions -  °F | °C
As of 4:13 PM on Saturday 22 Nov 2014 (Local Time) from KFMY Reporting Station
Overcast Overcast  
Wind Chill: 77°   Ceiling: 2600
Heat Index: 79°   Visibility: 10mi
Dew Point: 69°   Wind: 14mph
Humidity: 76%   Direction: 100°E
Pressure: 30.06"   Gusts: 20mph
Location:  26.6372°N, 81.8725°W
Report Text: KFMY 222113Z 10012G17KT 10SM SCT022 BKN026 OVC043 25/21 A3006 RMK AO2 T02500206
Loading
Personal Weather Stations






























Interactive Weather Map New forecast layout! Learn more

10-Day Weather Forecast

Advertisements
Track Severe Weather on mobile